Terminal Aerodrome Forecast
Issued by NWS

Home | Current Version | Previous Version | Text Only | Print | Product List | Glossary On
Versions: 1 2 3 4 5 6 7 8 9 10 11 12 13
000
FTUS43 KIND 271125
TAFBMG
TAF
KBMG 271125Z 2712/2812 VRB03KT P6SM SKC
      AMD LTD TO CLD VIS AND WIND TIL 271300=

USA.gov is the U.S. government's official web portal to all federal, state and local government web resources and services.